Time;durP1;ratioP1;P1;durP2;ratioP2;P2;SDS_P1;SDS_P2;PMS_P1;PMS_P2;Temp;Humidity;BMP_temperature;BMP_pressure;BME280_temperature;BME280_humidity;BME280_pressure;Samples;Min_cycle;Max_cycle;Signal;HPM_P1;HPM_P2
2022/01/13 00:00:52;;;;;;;;;;;3.40;99.90;;;;;;4261021;33;20310;-78
2022/01/13 00:03:24;;;;;;;;;;;3.40;99.90;;;;;;4258326;33;20406;-78
2022/01/13 00:05:52;;;;;;;;;;;3.40;99.90;;;;;;4260704;33;20005;-78
2022/01/13 00:08:19;;;;;;;;;;;3.40;99.90;;;;;;4260756;33;20014;-78
2022/01/13 00:10:52;;;;;;;;;;;3.40;99.90;;;;;;4259213;33;20019;-78
2022/01/13 00:13:32;;;;;;;;;;;3.40;99.90;;;;;;4260870;33;20054;-78
2022/01/13 00:19:03;;;;;;;;;;;3.40;99.90;;;;;;4259525;33;20418;-78
2022/01/13 00:21:37;;;;;;;;;;;3.40;99.90;;;;;;4259397;33;20424;-78
2022/01/13 00:24:13;;;;;;;;;;;3.30;99.90;;;;;;4260813;33;20018;-78
2022/01/13 00:26:43;;;;;;;;;;;3.40;99.90;;;;;;4260842;33;20007;-78
2022/01/13 00:29:13;;;;;;;;;;;3.40;99.90;;;;;;4260588;33;20015;-78
2022/01/13 00:31:42;;;;;;;;;;;3.30;99.90;;;;;;4259565;33;20021;-78
2022/01/13 00:34:12;;;;;;;;;;;3.30;99.90;;;;;;4259588;33;20011;-78
2022/01/13 00:36:39;;;;;;;;;;;3.30;99.90;;;;;;4259346;33;20015;-78
2022/01/13 00:39:10;;;;;;;;;;;3.30;99.90;;;;;;4260451;33;20003;-78
2022/01/13 00:41:40;;;;;;;;;;;3.30;99.90;;;;;;4259612;33;20003;-78
2022/01/13 00:44:08;;;;;;;;;;;3.30;99.90;;;;;;4259307;33;20104;-78
2022/01/13 00:46:42;;;;;;;;;;;3.30;99.90;;;;;;4260520;33;20468;-78
2022/01/13 00:49:11;;;;;;;;;;;3.30;99.90;;;;;;4259392;33;20436;-78
2022/01/13 00:51:43;;;;;;;;;;;3.30;99.90;;;;;;4259989;33;20078;-78
2022/01/13 00:54:18;;;;;;;;;;;3.30;99.90;;;;;;4259318;33;20023;-78
2022/01/13 00:56:48;;;;;;;;;;;3.30;99.90;;;;;;4258838;33;20082;-78
2022/01/13 00:59:21;;;;;;;;;;;3.30;99.90;;;;;;4258852;33;20018;-79
2022/01/13 01:01:52;;;;;;;;;;;3.30;99.90;;;;;;4258700;33;20468;-78
2022/01/13 01:04:20;;;;;;;;;;;3.30;99.90;;;;;;4259120;33;20049;-78
2022/01/13 01:06:50;;;;;;;;;;;3.20;99.90;;;;;;4260113;33;20015;-78
2022/01/13 01:09:28;;;;;;;;;;;3.20;99.90;;;;;;4258213;33;37692;-78
2022/01/13 01:11:59;;;;;;;;;;;3.30;99.90;;;;;;4257932;33;41881;-78
2022/01/13 01:14:28;;;;;;;;;;;3.20;99.90;;;;;;4257737;33;33695;-78
2022/01/13 01:16:55;;;;;;;;;;;3.30;99.90;;;;;;4257469;33;41794;-78
2022/01/13 01:19:27;;;;;;;;;;;3.20;99.90;;;;;;4257858;33;37046;-78
2022/01/13 01:22:42;;;;;;;;;;;3.20;99.90;;;;;;4259045;33;43810;-78
2022/01/13 01:27:25;;;;;;;;;;;3.20;99.90;;;;;;4259387;33;31609;-78
2022/01/13 01:30:00;;;;;;;;;;;3.20;99.90;;;;;;4258997;33;39905;-78
2022/01/13 01:32:28;;;;;;;;;;;3.20;99.90;;;;;;4269371;33;45075;-78
2022/01/13 01:35:02;;;;;;;;;;;3.20;99.90;;;;;;4258494;33;36916;-78
2022/01/13 01:37:32;;;;;;;;;;;3.20;99.90;;;;;;4258212;33;25040;-78
2022/01/13 01:40:05;;;;;;;;;;;3.10;99.90;;;;;;4258986;33;39302;-78
2022/01/13 01:42:35;;;;;;;;;;;3.20;99.90;;;;;;4257917;33;43507;-78
2022/01/13 01:45:03;;;;;;;;;;;3.20;99.90;;;;;;4258787;33;41109;-80
2022/01/13 01:47:30;;;;;;;;;;;3.20;99.90;;;;;;4258161;33;45192;-78
2022/01/13 01:50:09;;;;;;;;;;;3.20;99.90;;;;;;4258181;33;43249;-78
2022/01/13 01:52:37;;;;;;;;;;;3.20;99.90;;;;;;4259569;33;20019;-78
2022/01/13 01:55:07;;;;;;;;;;;3.10;99.90;;;;;;4258205;33;22395;-78
2022/01/13 01:57:34;;;;;;;;;;;3.20;99.90;;;;;;4259024;33;31292;-78
2022/01/13 02:00:05;;;;;;;;;;;3.20;99.90;;;;;;4258277;33;37950;-78
2022/01/13 02:02:32;;;;;;;;;;;3.20;99.90;;;;;;4258486;33;20015;-78
2022/01/13 02:05:03;;;;;;;;;;;3.10;99.90;;;;;;4258188;33;20021;-78
2022/01/13 02:07:30;;;;;;;;;;;3.20;99.90;;;;;;4261367;33;20017;-78
2022/01/13 02:10:02;;;;;;;;;;;3.10;99.90;;;;;;4261551;33;29669;-78
2022/01/13 02:12:36;;;;;;;;;;;3.10;99.90;;;;;;4261422;33;36448;-78
2022/01/13 02:15:28;;;;;;;;;;;3.10;99.90;;;;;;4261526;33;20052;-78
2022/01/13 02:17:53;;;;;;;;;;;3.10;99.90;;;;;;4261687;33;31537;-78
2022/01/13 02:20:21;;;;;;;;;;;3.10;99.90;;;;;;4260036;33;34022;-78
2022/01/13 02:22:48;;;;;;;;;;;3.10;99.90;;;;;;4261583;33;31495;-78
2022/01/13 02:25:15;;;;;;;;;;;3.10;99.90;;;;;;4260225;33;29189;-78
2022/01/13 02:27:43;;;;;;;;;;;3.10;99.90;;;;;;4260926;33;36466;-78
2022/01/13 02:30:10;;;;;;;;;;;3.10;99.90;;;;;;4259715;33;40001;-78
2022/01/13 02:32:38;;;;;;;;;;;3.10;99.90;;;;;;4260728;33;40393;-78
2022/01/13 02:35:05;;;;;;;;;;;3.00;99.90;;;;;;4261021;33;37284;-78
2022/01/13 02:37:32;;;;;;;;;;;3.00;99.90;;;;;;4262142;33;20418;-78
2022/01/13 02:40:02;;;;;;;;;;;3.00;99.90;;;;;;4259814;33;33766;-78
2022/01/13 02:42:33;;;;;;;;;;;3.00;99.90;;;;;;4259508;33;45688;-78
2022/01/13 02:45:06;;;;;;;;;;;3.00;99.90;;;;;;4260009;33;35752;-78
2022/01/13 02:50:07;;;;;;;;;;;3.00;99.90;;;;;;4259809;33;43335;-78
2022/01/13 02:52:35;;;;;;;;;;;2.90;99.90;;;;;;4261179;33;30295;-78
2022/01/13 02:55:03;;;;;;;;;;;2.90;99.90;;;;;;4259622;33;33951;-78
2022/01/13 02:57:35;;;;;;;;;;;2.90;99.90;;;;;;4260457;33;20006;-78
2022/01/13 03:00:06;;;;;;;;;;;2.90;99.90;;;;;;4261166;33;32076;-78
2022/01/13 03:02:33;;;;;;;;;;;2.90;99.90;;;;;;4260374;33;20066;-79
2022/01/13 03:05:00;;;;;;;;;;;2.90;99.90;;;;;;4260228;33;31682;-78
2022/01/13 03:07:34;;;;;;;;;;;2.90;99.90;;;;;;4260782;33;44010;-78
2022/01/13 03:10:04;;;;;;;;;;;2.90;99.90;;;;;;4259932;33;38583;-78
2022/01/13 03:12:33;;;;;;;;;;;2.90;99.90;;;;;;4260384;33;19999;-78
2022/01/13 03:15:00;;;;;;;;;;;2.90;99.90;;;;;;4260078;33;43395;-78
2022/01/13 03:17:28;;;;;;;;;;;2.90;99.90;;;;;;4259626;33;43515;-78
2022/01/13 03:19:58;;;;;;;;;;;2.90;99.90;;;;;;4259059;33;32208;-78
2022/01/13 03:22:25;;;;;;;;;;;2.90;99.90;;;;;;4260995;33;28516;-78
2022/01/13 03:24:52;;;;;;;;;;;2.90;99.90;;;;;;4260798;33;20023;-78
2022/01/13 03:27:33;;;;;;;;;;;2.80;99.90;;;;;;4261770;33;20062;-78
2022/01/13 03:30:03;;;;;;;;;;;2.90;99.90;;;;;;4259841;33;36579;-78
2022/01/13 03:32:30;;;;;;;;;;;2.80;99.90;;;;;;4258944;33;38169;-78
2022/01/13 03:34:57;;;;;;;;;;;2.80;99.90;;;;;;4259081;33;41620;-78
2022/01/13 03:37:24;;;;;;;;;;;2.80;99.90;;;;;;4259259;33;38245;-78
2022/01/13 03:39:51;;;;;;;;;;;2.80;99.90;;;;;;4259358;33;25756;-78
2022/01/13 03:42:21;;;;;;;;;;;2.80;99.90;;;;;;4260928;33;20448;-78
2022/01/13 03:44:48;;;;;;;;;;;2.80;99.90;;;;;;4259001;33;43417;-78
2022/01/13 03:47:18;;;;;;;;;;;2.80;99.90;;;;;;4260250;33;32417;-78
2022/01/13 03:49:50;;;;;;;;;;;2.80;99.90;;;;;;4259648;33;36458;-78
2022/01/13 03:52:23;;;;;;;;;;;2.80;99.90;;;;;;4260737;33;22980;-78
2022/01/13 03:55:09;;;;;;;;;;;2.80;99.90;;;;;;4259225;33;34932;-78
2022/01/13 03:57:42;;;;;;;;;;;2.80;99.90;;;;;;4259237;33;39393;-78
2022/01/13 04:00:41;;;;;;;;;;;2.80;99.90;;;;;;4259844;33;20368;-78
2022/01/13 04:03:12;;;;;;;;;;;2.70;99.90;;;;;;4260418;33;20079;-78
2022/01/13 04:05:58;;;;;;;;;;;2.70;99.90;;;;;;4247867;33;20021;-78
2022/01/13 04:08:25;;;;;;;;;;;2.70;99.90;;;;;;4248431;33;20014;-78
2022/01/13 04:11:04;;;;;;;;;;;2.70;99.90;;;;;;4260681;33;20417;-78
2022/01/13 04:16:17;;;;;;;;;;;2.70;99.90;;;;;;4247575;33;20372;-78
2022/01/13 04:18:47;;;;;;;;;;;2.70;99.90;;;;;;4259947;33;20067;-78
2022/01/13 04:21:16;;;;;;;;;;;2.70;99.90;;;;;;4260433;33;20029;-78
2022/01/13 04:23:44;;;;;;;;;;;2.70;99.90;;;;;;4260879;33;19999;-78
2022/01/13 04:26:12;;;;;;;;;;;2.70;99.90;;;;;;4247996;33;20096;-77
2022/01/13 04:28:42;;;;;;;;;;;2.70;99.90;;;;;;4247567;33;20086;-78
2022/01/13 04:31:12;;;;;;;;;;;2.70;99.90;;;;;;4259423;33;20409;-78
2022/01/13 04:33:44;;;;;;;;;;;2.70;99.90;;;;;;4260039;33;24427;-78
2022/01/13 04:36:14;;;;;;;;;;;2.70;99.90;;;;;;4246886;33;35571;-78
2022/01/13 04:38:44;;;;;;;;;;;2.70;99.90;;;;;;4235006;33;35931;-78
2022/01/13 04:41:28;;;;;;;;;;;2.60;99.90;;;;;;4246960;33;30153;-78
2022/01/13 04:43:59;;;;;;;;;;;2.60;99.90;;;;;;4247403;33;20019;-78
2022/01/13 04:46:29;;;;;;;;;;;2.60;99.90;;;;;;4247784;33;20009;-78
2022/01/13 04:48:56;;;;;;;;;;;2.60;99.90;;;;;;4247471;33;20027;-78
2022/01/13 04:51:26;;;;;;;;;;;2.60;99.90;;;;;;4260058;33;20019;-78
2022/01/13 04:53:56;;;;;;;;;;;2.50;99.90;;;;;;4246825;33;20019;-78
2022/01/13 04:56:37;;;;;;;;;;;2.60;99.90;;;;;;4260267;33;20013;-78
2022/01/13 04:59:05;;;;;;;;;;;2.60;99.90;;;;;;4260374;33;20007;-78
2022/01/13 05:01:33;;;;;;;;;;;2.50;99.90;;;;;;4246914;33;20025;-78
2022/01/13 05:04:03;;;;;;;;;;;2.50;99.90;;;;;;4259995;33;20019;-78
2022/01/13 05:06:30;;;;;;;;;;;2.60;99.90;;;;;;4247034;33;20055;-78
2022/01/13 05:09:01;;;;;;;;;;;2.60;99.90;;;;;;4260038;33;20010;-78
2022/01/13 05:11:28;;;;;;;;;;;2.50;99.90;;;;;;4247220;33;20007;-78
2022/01/13 05:14:02;;;;;;;;;;;2.60;99.90;;;;;;4247315;33;20019;-78
2022/01/13 05:16:48;;;;;;;;;;;2.60;99.90;;;;;;4247091;33;20081;-78
2022/01/13 05:19:21;;;;;;;;;;;2.50;99.90;;;;;;4247573;33;20019;-78
2022/01/13 05:24:30;;;;;;;;;;;2.50;99.90;;;;;;4259059;33;38704;-78
2022/01/13 05:27:00;;;;;;;;;;;2.50;99.90;;;;;;4235626;33;20067;-78
2022/01/13 05:29:27;;;;;;;;;;;2.50;99.90;;;;;;4260243;33;20021;-78
2022/01/13 05:31:57;;;;;;;;;;;2.50;99.90;;;;;;4246337;33;20011;-78
2022/01/13 05:34:28;;;;;;;;;;;2.50;99.90;;;;;;4259521;33;20021;-78
2022/01/13 05:37:11;;;;;;;;;;;2.50;99.90;;;;;;4248904;33;20021;-78
2022/01/13 05:39:41;;;;;;;;;;;2.50;99.90;;;;;;4259547;33;20529;-78
2022/01/13 05:42:10;;;;;;;;;;;2.50;99.90;;;;;;4259377;33;20444;-78
2022/01/13 05:44:39;;;;;;;;;;;2.50;99.90;;;;;;4260083;33;20025;-78
2022/01/13 05:47:10;;;;;;;;;;;2.50;99.90;;;;;;4259357;33;20025;-78
2022/01/13 05:49:43;;;;;;;;;;;2.50;99.90;;;;;;4259757;33;20315;-78
2022/01/13 05:52:15;;;;;;;;;;;2.40;99.90;;;;;;4259654;33;20345;-78
2022/01/13 05:54:44;;;;;;;;;;;2.40;99.90;;;;;;4235064;33;20334;-78
2022/01/13 05:57:11;;;;;;;;;;;2.40;99.90;;;;;;4259497;33;20007;-78
2022/01/13 05:59:44;;;;;;;;;;;2.40;99.90;;;;;;4246563;33;20023;-78
2022/01/13 06:02:12;;;;;;;;;;;2.40;99.90;;;;;;4258717;33;20446;-79
2022/01/13 06:04:39;;;;;;;;;;;2.40;99.90;;;;;;4259419;33;20048;-78
2022/01/13 06:07:12;;;;;;;;;;;2.40;99.90;;;;;;4246982;33;20070;-78
2022/01/13 06:09:39;;;;;;;;;;;2.40;99.90;;;;;;4246969;33;20101;-78
2022/01/13 06:12:09;;;;;;;;;;;2.30;99.90;;;;;;4247055;33;20414;-78
2022/01/13 06:14:39;;;;;;;;;;;2.30;99.90;;;;;;4259568;33;20008;-78
2022/01/13 06:17:08;;;;;;;;;;;2.30;99.90;;;;;;4259676;33;20436;-78
2022/01/13 06:19:38;;;;;;;;;;;2.30;99.90;;;;;;4246910;33;20019;-78
2022/01/13 06:22:08;;;;;;;;;;;2.30;99.90;;;;;;4246315;33;20011;-78
2022/01/13 06:24:35;;;;;;;;;;;2.30;99.90;;;;;;4259261;33;20019;-78
2022/01/13 06:27:05;;;;;;;;;;;2.20;99.90;;;;;;4259516;33;20017;-78
2022/01/13 06:29:34;;;;;;;;;;;2.20;99.90;;;;;;4259123;33;20051;-78
2022/01/13 06:32:04;;;;;;;;;;;2.20;99.90;;;;;;4246498;33;20031;-78
2022/01/13 06:34:31;;;;;;;;;;;2.20;99.90;;;;;;4246025;33;20010;-78
2022/01/13 06:37:06;;;;;;;;;;;2.20;99.90;;;;;;4246059;33;20003;-78
2022/01/13 06:39:34;;;;;;;;;;;2.10;99.90;;;;;;4257885;33;20058;-78
2022/01/13 06:42:06;;;;;;;;;;;2.20;99.90;;;;;;4246593;33;20413;-78
2022/01/13 06:44:33;;;;;;;;;;;2.10;99.90;;;;;;4246553;33;20023;-78
2022/01/13 06:47:05;;;;;;;;;;;2.10;99.90;;;;;;4245973;33;20062;-78
2022/01/13 06:49:33;;;;;;;;;;;2.10;99.90;;;;;;4246600;33;20011;-78
2022/01/13 06:52:06;;;;;;;;;;;2.10;99.90;;;;;;4257864;33;20130;-78
2022/01/13 06:54:35;;;;;;;;;;;2.10;99.90;;;;;;4248135;33;20021;-78
2022/01/13 06:57:04;;;;;;;;;;;2.10;99.90;;;;;;4248135;33;20025;-78
2022/01/13 06:59:31;;;;;;;;;;;2.10;99.90;;;;;;4261812;33;20311;-78
2022/01/13 07:02:01;;;;;;;;;;;2.10;99.90;;;;;;4250817;33;20059;-78
2022/01/13 07:04:31;;;;;;;;;;;2.10;99.90;;;;;;4261652;33;20065;-78
2022/01/13 07:06:58;;;;;;;;;;;2.10;99.90;;;;;;4259793;33;20047;-78
2022/01/13 07:09:31;;;;;;;;;;;2.10;99.90;;;;;;4260174;33;20450;-78
2022/01/13 07:11:58;;;;;;;;;;;2.10;99.90;;;;;;4261790;33;20008;-78
2022/01/13 07:14:28;;;;;;;;;;;2.10;99.90;;;;;;4260017;33;20021;-78
2022/01/13 07:16:55;;;;;;;;;;;2.10;99.90;;;;;;4261529;33;20015;-78
2022/01/13 07:19:22;;;;;;;;;;;2.10;99.90;;;;;;4260703;33;20022;-78
2022/01/13 07:21:50;;;;;;;;;;;2.10;99.90;;;;;;4261700;33;20442;-79
2022/01/13 07:24:18;;;;;;;;;;;2.10;99.90;;;;;;4248803;33;20019;-78
2022/01/13 07:26:47;;;;;;;;;;;2.10;99.90;;;;;;4260505;33;20004;-78
2022/01/13 07:29:14;;;;;;;;;;;2.10;99.90;;;;;;4260782;33;20410;-78
2022/01/13 07:31:42;;;;;;;;;;;2.10;99.90;;;;;;4260185;33;20007;-78
2022/01/13 07:34:11;;;;;;;;;;;2.10;99.90;;;;;;4261553;33;20024;-78
2022/01/13 07:36:40;;;;;;;;;;;2.10;99.90;;;;;;4261595;33;20025;-78
2022/01/13 07:39:08;;;;;;;;;;;2.10;99.90;;;;;;4248393;33;20051;-78
2022/01/13 07:41:38;;;;;;;;;;;2.10;99.90;;;;;;4260955;33;20012;-78
2022/01/13 07:44:08;;;;;;;;;;;2.10;99.90;;;;;;4260960;33;20391;-78
2022/01/13 07:46:35;;;;;;;;;;;2.10;99.90;;;;;;4261625;33;20015;-78
2022/01/13 07:49:02;;;;;;;;;;;2.10;99.90;;;;;;4259919;33;20015;-78
2022/01/13 07:51:30;;;;;;;;;;;2.10;99.90;;;;;;4261414;33;20256;-80
2022/01/13 07:53:57;;;;;;;;;;;2.10;99.90;;;;;;4260026;33;20011;-81
2022/01/13 07:56:30;;;;;;;;;;;2.10;99.90;;;;;;4260096;33;20084;-81
2022/01/13 07:59:00;;;;;;;;;;;2.10;99.90;;;;;;4260133;33;20029;-81
2022/01/13 08:01:27;;;;;;;;;;;2.10;99.90;;;;;;4259661;33;20011;-81
2022/01/13 08:03:59;;;;;;;;;;;2.10;99.90;;;;;;4259942;33;20007;-81
2022/01/13 08:06:26;;;;;;;;;;;2.10;99.90;;;;;;4260942;33;20027;-81
2022/01/13 08:08:54;;;;;;;;;;;2.10;99.90;;;;;;4236406;33;20021;-81
2022/01/13 08:11:24;;;;;;;;;;;2.10;99.90;;;;;;4248237;33;20010;-82
2022/01/13 08:13:51;;;;;;;;;;;2.10;99.90;;;;;;4247983;33;20073;-82
2022/01/13 08:16:19;;;;;;;;;;;2.10;99.90;;;;;;4247633;33;19995;-86
2022/01/13 08:21:35;;;;;;;;;;;2.10;99.90;;;;;;4260857;33;20041;-86
2022/01/13 08:24:05;;;;;;;;;;;2.10;99.90;;;;;;4236196;33;20000;-86
2022/01/13 08:26:32;;;;;;;;;;;2.10;99.90;;;;;;4248033;33;20009;-87
2022/01/13 08:28:59;;;;;;;;;;;2.10;99.90;;;;;;4248221;33;20396;-88
2022/01/13 08:31:27;;;;;;;;;;;2.20;99.90;;;;;;4248232;33;20015;-86
2022/01/13 08:33:57;;;;;;;;;;;2.20;99.90;;;;;;4235867;33;20026;-82
2022/01/13 08:36:28;;;;;;;;;;;2.20;99.90;;;;;;4236484;33;19999;-85
2022/01/13 08:38:56;;;;;;;;;;;2.20;99.90;;;;;;4247080;33;20091;-84
2022/01/13 08:41:25;;;;;;;;;;;2.20;99.90;;;;;;4236080;33;20063;-85
2022/01/13 08:43:55;;;;;;;;;;;2.20;99.90;;;;;;4260561;33;20405;-85
2022/01/13 08:46:26;;;;;;;;;;;2.20;99.90;;;;;;4247242;33;20015;-85
2022/01/13 08:48:53;;;;;;;;;;;2.20;99.90;;;;;;4247657;33;20391;-85
2022/01/13 08:51:20;;;;;;;;;;;2.20;99.90;;;;;;4235526;33;20081;-85
2022/01/13 08:53:48;;;;;;;;;;;2.20;99.90;;;;;;4235792;33;20043;-86
2022/01/13 08:56:18;;;;;;;;;;;2.20;99.90;;;;;;4247456;33;20021;-85
2022/01/13 08:58:46;;;;;;;;;;;2.30;99.90;;;;;;4247202;33;20017;-85
2022/01/13 09:01:20;;;;;;;;;;;2.30;99.90;;;;;;4247529;33;20015;-85
2022/01/13 09:03:53;;;;;;;;;;;2.20;99.90;;;;;;4247523;33;20007;-85
2022/01/13 09:06:22;;;;;;;;;;;2.20;99.90;;;;;;4235538;33;20003;-85
2022/01/13 09:08:50;;;;;;;;;;;2.30;99.90;;;;;;4247137;33;20015;-85
2022/01/13 09:11:17;;;;;;;;;;;2.20;99.90;;;;;;4246859;33;20397;-85
2022/01/13 09:13:44;;;;;;;;;;;2.30;99.90;;;;;;4235459;33;20085;-85
2022/01/13 09:16:16;;;;;;;;;;;2.30;99.90;;;;;;4246747;33;20013;-85
2022/01/13 09:21:27;;;;;;;;;;;2.30;99.90;;;;;;4258703;33;20035;-86
2022/01/13 09:23:54;;;;;;;;;;;2.30;99.90;;;;;;4246862;33;20380;-85
2022/01/13 09:26:22;;;;;;;;;;;2.30;99.90;;;;;;4260012;33;20094;-85
2022/01/13 09:28:52;;;;;;;;;;;2.30;99.90;;;;;;4246715;33;35543;-85
2022/01/13 09:31:22;;;;;;;;;;;2.30;99.90;;;;;;4258627;33;19995;-86
2022/01/13 09:33:53;;;;;;;;;;;2.30;99.90;;;;;;4246680;33;20008;-85
2022/01/13 09:36:23;;;;;;;;;;;2.30;99.90;;;;;;4259707;33;20058;-85
2022/01/13 09:38:56;;;;;;;;;;;2.30;99.90;;;;;;4246980;33;20129;-85
2022/01/13 09:41:33;;;;;;;;;;;2.30;99.90;;;;;;4235128;33;20038;-85
2022/01/13 09:44:01;;;;;;;;;;;2.30;99.90;;;;;;4246723;33;20076;-85
2022/01/13 09:46:32;;;;;;;;;;;2.30;99.90;;;;;;4247257;33;20011;-82
2022/01/13 09:49:04;;;;;;;;;;;2.30;99.90;;;;;;4246099;33;24082;-86
2022/01/13 09:51:32;;;;;;;;;;;2.30;99.90;;;;;;4246112;33;35332;-86
2022/01/13 09:54:02;;;;;;;;;;;2.40;99.90;;;;;;4234852;33;20047;-86
2022/01/13 09:56:35;;;;;;;;;;;2.40;99.90;;;;;;4234606;33;27686;-86
2022/01/13 09:59:02;;;;;;;;;;;2.30;99.90;;;;;;4234374;33;20021;-86
2022/01/13 10:01:31;;;;;;;;;;;2.40;99.90;;;;;;4246145;33;22455;-86
2022/01/13 10:03:59;;;;;;;;;;;2.40;99.90;;;;;;4246352;33;24882;-86
2022/01/13 10:06:26;;;;;;;;;;;2.40;99.90;;;;;;4234521;33;20017;-86
2022/01/13 10:08:54;;;;;;;;;;;2.40;99.90;;;;;;4234336;33;19995;-87
2022/01/13 10:11:47;;;;;;;;;;;2.40;99.90;;;;;;4234733;33;20051;-86
2022/01/13 10:16:53;;;;;;;;;;;2.40;99.90;;;;;;4259617;33;20011;-86
2022/01/13 10:19:32;;;;;;;;;;;2.40;99.90;;;;;;4246619;33;20050;-86
2022/01/13 10:22:19;;;;;;;;;;;2.40;99.90;;;;;;4233899;33;34270;-86
2022/01/13 10:24:47;;;;;;;;;;;2.40;99.90;;;;;;4246096;33;27130;-85
2022/01/13 10:27:16;;;;;;;;;;;2.50;99.90;;;;;;4234236;33;40445;-86
2022/01/13 10:29:46;;;;;;;;;;;2.50;99.90;;;;;;4237361;33;20014;-86
2022/01/13 10:32:19;;;;;;;;;;;2.50;99.90;;;;;;4237367;33;21916;-86
2022/01/13 10:34:48;;;;;;;;;;;2.50;99.90;;;;;;4248480;33;31894;-86
2022/01/13 10:37:19;;;;;;;;;;;2.50;99.90;;;;;;4248196;33;37631;-86
2022/01/13 10:39:49;;;;;;;;;;;2.50;99.90;;;;;;4249453;33;20051;-86
2022/01/13 10:45:17;;;;;;;;;;;2.60;99.90;;;;;;4249297;33;20416;-86
2022/01/13 10:47:50;;;;;;;;;;;2.60;99.90;;;;;;4248797;33;20011;-86
2022/01/13 10:50:18;;;;;;;;;;;2.60;99.90;;;;;;4249030;33;20061;-86
2022/01/13 10:52:51;;;;;;;;;;;2.60;99.90;;;;;;4249581;33;20402;-86
2022/01/13 10:55:26;;;;;;;;;;;2.70;99.90;;;;;;4261938;33;20007;-86
2022/01/13 10:58:12;;;;;;;;;;;2.70;99.90;;;;;;4250526;33;20000;-86
2022/01/13 11:00:45;;;;;;;;;;;2.70;99.90;;;;;;4249228;33;20004;-86
2022/01/13 11:03:17;;;;;;;;;;;2.80;99.90;;;;;;4247561;33;20058;-87
2022/01/13 11:05:52;;;;;;;;;;;2.80;99.90;;;;;;4260492;33;20029;-86
2022/01/13 11:08:41;;;;;;;;;;;2.80;99.90;;;;;;4260105;33;26302;-86
2022/01/13 11:11:26;;;;;;;;;;;2.80;99.90;;;;;;4261155;33;33370;-86
2022/01/13 11:13:57;;;;;;;;;;;2.80;99.90;;;;;;4247813;33;43667;-86
2022/01/13 11:16:29;;;;;;;;;;;2.80;99.90;;;;;;4260700;33;19999;-85
2022/01/13 11:19:00;;;;;;;;;;;2.90;99.90;;;;;;4248761;33;20047;-85
2022/01/13 11:21:32;;;;;;;;;;;2.90;99.90;;;;;;4247621;33;42138;-86
2022/01/13 11:24:03;;;;;;;;;;;3.00;99.90;;;;;;4260473;33;20003;-86
2022/01/13 11:26:34;;;;;;;;;;;3.00;99.90;;;;;;4261038;33;20015;-85
2022/01/13 11:29:01;;;;;;;;;;;3.00;99.90;;;;;;4248618;33;20615;-85
2022/01/13 11:31:31;;;;;;;;;;;3.00;99.90;;;;;;4248084;33;32158;-85
2022/01/13 11:34:01;;;;;;;;;;;3.10;99.90;;;;;;4248626;33;20003;-85
2022/01/13 11:36:29;;;;;;;;;;;3.10;99.90;;;;;;4259422;33;24270;-86
2022/01/13 11:39:00;;;;;;;;;;;3.20;99.90;;;;;;4259350;33;24429;-86
2022/01/13 11:41:30;;;;;;;;;;;3.20;99.90;;;;;;4260380;33;20417;-86
2022/01/13 11:44:14;;;;;;;;;;;3.20;99.90;;;;;;4259818;33;22415;-85
2022/01/13 11:46:45;;;;;;;;;;;3.20;99.90;;;;;;4260225;33;20015;-86
2022/01/13 11:49:21;;;;;;;;;;;3.30;99.90;;;;;;4259570;33;20062;-86
2022/01/13 11:51:57;;;;;;;;;;;3.30;99.90;;;;;;4259618;33;37809;-85
2022/01/13 11:54:31;;;;;;;;;;;3.40;99.90;;;;;;4260860;33;26115;-85
2022/01/13 11:57:27;;;;;;;;;;;3.40;99.90;;;;;;4249998;33;20015;-85
2022/01/13 11:59:58;;;;;;;;;;;3.40;99.90;;;;;;4259279;33;34690;-85
2022/01/13 12:02:32;;;;;;;;;;;3.40;99.90;;;;;;4259930;33;20311;-85
2022/01/13 12:05:04;;;;;;;;;;;3.50;99.90;;;;;;4258713;33;44805;-85
2022/01/13 12:07:43;;;;;;;;;;;3.50;99.90;;;;;;4247811;33;20010;-86
2022/01/13 12:10:30;;;;;;;;;;;3.50;99.90;;;;;;4247140;33;30002;-86
2022/01/13 12:13:20;;;;;;;;;;;3.60;99.90;;;;;;4247199;33;28238;-86
2022/01/13 12:15:51;;;;;;;;;;;3.60;99.90;;;;;;4247670;33;20003;-85
2022/01/13 12:18:44;;;;;;;;;;;3.60;99.90;;;;;;4259262;33;30999;-84
2022/01/13 12:21:27;;;;;;;;;;;3.70;99.90;;;;;;4257733;33;37034;-85
2022/01/13 12:23:55;;;;;;;;;;;3.70;99.90;;;;;;4259431;33;20025;-85
2022/01/13 12:26:32;;;;;;;;;;;3.70;99.90;;;;;;4247515;33;20125;-85
2022/01/13 12:29:08;;;;;;;;;;;3.70;99.90;;;;;;4246534;33;38165;-85
2022/01/13 12:31:47;;;;;;;;;;;3.70;99.90;;;;;;4247266;33;20004;-84
2022/01/13 12:34:22;;;;;;;;;;;3.80;99.90;;;;;;4260604;33;20075;-85
2022/01/13 12:36:49;;;;;;;;;;;3.80;99.90;;;;;;4247181;33;24189;-85
2022/01/13 12:39:17;;;;;;;;;;;3.90;99.90;;;;;;4259492;33;20011;-85
2022/01/13 12:42:00;;;;;;;;;;;3.90;99.90;;;;;;4246652;33;41749;-84
2022/01/13 12:47:13;;;;;;;;;;;3.90;99.90;;;;;;4259795;33;34758;-85
2022/01/13 12:49:50;;;;;;;;;;;4.00;99.90;;;;;;4247551;33;38796;-85
2022/01/13 12:52:21;;;;;;;;;;;4.00;99.90;;;;;;4245704;33;33576;-85
2022/01/13 12:54:49;;;;;;;;;;;4.10;99.90;;;;;;4259052;33;20467;-85
2022/01/13 12:57:22;;;;;;;;;;;4.10;99.90;;;;;;4247811;33;20000;-85
2022/01/13 12:59:56;;;;;;;;;;;4.10;99.90;;;;;;4246241;33;31137;-85
2022/01/13 13:02:26;;;;;;;;;;;4.10;99.90;;;;;;4258386;33;20082;-85
2022/01/13 13:04:53;;;;;;;;;;;4.20;99.90;;;;;;4246831;33;21930;-85
2022/01/13 13:07:22;;;;;;;;;;;4.30;99.90;;;;;;4258086;33;26768;-85
2022/01/13 13:09:52;;;;;;;;;;;4.30;99.90;;;;;;4258795;33;20019;-85
2022/01/13 13:12:26;;;;;;;;;;;4.30;99.90;;;;;;4258773;33;20074;-85
2022/01/13 13:17:45;;;;;;;;;;;4.40;99.90;;;;;;4257939;33;35938;-85
2022/01/13 13:20:26;;;;;;;;;;;4.40;99.90;;;;;;4258593;33;26943;-85
2022/01/13 13:22:56;;;;;;;;;;;4.40;99.90;;;;;;4258105;33;42041;-85
2022/01/13 13:25:37;;;;;;;;;;;4.40;99.90;;;;;;4258642;33;20007;-85
2022/01/13 13:28:17;;;;;;;;;;;4.50;99.90;;;;;;4258727;33;20078;-85
2022/01/13 13:30:49;;;;;;;;;;;4.50;99.90;;;;;;4257755;33;30007;-85
2022/01/13 13:33:37;;;;;;;;;;;4.50;99.90;;;;;;4249130;33;20002;-85
2022/01/13 13:36:09;;;;;;;;;;;4.50;99.90;;;;;;4257567;33;30385;-82
2022/01/13 13:38:55;;;;;;;;;;;4.60;99.90;;;;;;4259034;33;32949;-82
2022/01/13 13:41:24;;;;;;;;;;;4.60;99.90;;;;;;4259066;33;20401;-83
2022/01/13 13:44:10;;;;;;;;;;;4.60;99.90;;;;;;4248695;33;20011;-89
2022/01/13 13:46:43;;;;;;;;;;;4.70;99.90;;;;;;4258960;33;20424;-83
2022/01/13 13:49:15;;;;;;;;;;;4.70;99.90;;;;;;4258623;33;20457;-86
2022/01/13 13:51:42;;;;;;;;;;;4.70;99.90;;;;;;4246567;33;20016;-88
2022/01/13 13:54:09;;;;;;;;;;;4.70;99.90;;;;;;4247200;33;20025;-88
2022/01/13 13:56:41;;;;;;;;;;;4.70;99.90;;;;;;4246964;33;20025;-87
2022/01/13 13:59:17;;;;;;;;;;;4.70;99.90;;;;;;4245710;33;38475;-87
2022/01/13 14:01:57;;;;;;;;;;;4.70;99.90;;;;;;4257538;33;38156;-87
2022/01/13 14:04:31;;;;;;;;;;;4.70;99.90;;;;;;4261843;33;20108;-87
2022/01/13 14:06:59;;;;;;;;;;;4.80;99.90;;;;;;4262260;33;25452;-87
2022/01/13 14:09:36;;;;;;;;;;;4.80;99.90;;;;;;4249504;33;19996;-87
2022/01/13 14:12:03;;;;;;;;;;;4.80;99.90;;;;;;4248724;33;34664;-87
2022/01/13 14:14:38;;;;;;;;;;;4.80;99.90;;;;;;4261808;33;20007;-87
2022/01/13 14:17:09;;;;;;;;;;;4.90;99.90;;;;;;4249498;33;20015;-87
2022/01/13 14:19:44;;;;;;;;;;;4.90;99.90;;;;;;4272317;33;27095;-87
2022/01/13 14:22:11;;;;;;;;;;;4.90;99.90;;;;;;4249712;33;20035;-87
2022/01/13 14:24:39;;;;;;;;;;;4.90;99.90;;;;;;4249091;33;20413;-87
2022/01/13 14:27:12;;;;;;;;;;;4.90;99.90;;;;;;4249569;33;20030;-87
2022/01/13 14:29:42;;;;;;;;;;;4.90;99.90;;;;;;4248997;33;25817;-87
2022/01/13 14:32:12;;;;;;;;;;;5.00;99.90;;;;;;4260770;33;25435;-87
2022/01/13 14:34:44;;;;;;;;;;;5.00;99.90;;;;;;4248812;33;29557;-87
2022/01/13 14:37:11;;;;;;;;;;;5.00;99.90;;;;;;4249155;33;20003;-87
2022/01/13 14:39:40;;;;;;;;;;;5.00;99.90;;;;;;4261467;33;21166;-87
2022/01/13 14:42:16;;;;;;;;;;;5.00;99.90;;;;;;4261331;33;20017;-86
2022/01/13 14:44:43;;;;;;;;;;;5.00;99.90;;;;;;4248659;33;32699;-87
2022/01/13 14:47:10;;;;;;;;;;;5.10;99.90;;;;;;4260180;33;25457;-87
2022/01/13 14:49:37;;;;;;;;;;;5.10;99.90;;;;;;4248290;33;36864;-86
2022/01/13 14:52:06;;;;;;;;;;;5.10;99.90;;;;;;4248569;33;27853;-86
2022/01/13 14:54:34;;;;;;;;;;;5.10;99.90;;;;;;4248409;33;32347;-87
2022/01/13 14:57:02;;;;;;;;;;;5.10;99.90;;;;;;4248846;33;21721;-86
2022/01/13 14:59:29;;;;;;;;;;;5.20;99.90;;;;;;4261020;33;20360;-88
2022/01/13 15:01:56;;;;;;;;;;;5.20;99.90;;;;;;4248679;33;20018;-86
2022/01/13 15:04:24;;;;;;;;;;;5.20;99.90;;;;;;4248348;33;36617;-86
2022/01/13 15:06:51;;;;;;;;;;;5.20;99.90;;;;;;4248514;33;25974;-87
2022/01/13 15:09:18;;;;;;;;;;;5.20;99.90;;;;;;4248082;33;32113;-87
2022/01/13 15:11:45;;;;;;;;;;;5.30;99.90;;;;;;4247973;33;25417;-86
2022/01/13 15:14:15;;;;;;;;;;;5.30;99.90;;;;;;4247419;33;28297;-87
2022/01/13 15:16:42;;;;;;;;;;;5.30;99.90;;;;;;4248492;33;20019;-87
2022/01/13 15:19:12;;;;;;;;;;;5.30;99.90;;;;;;4260111;33;20014;-87
2022/01/13 15:21:39;;;;;;;;;;;5.30;99.90;;;;;;4248184;33;23364;-87
2022/01/13 15:24:08;;;;;;;;;;;5.30;99.90;;;;;;4260200;33;20375;-86